createdAt,value
2023-04-29T00:02:46.038Z,97896.53
2023-04-29T00:05:33.871Z,97888.72
2023-04-29T00:08:22.039Z,97885.41
2023-04-29T00:11:11.411Z,97890.06
2023-04-29T00:14:02.636Z,97898.69
2023-04-29T00:16:50.595Z,97912.41
2023-04-29T00:19:38.550Z,97908.25
2023-04-29T00:22:26.710Z,97900.94
2023-04-29T00:25:14.859Z,97908.25
2023-04-29T00:28:03.405Z,97900.59
2023-04-29T00:30:53.381Z,97912.22
2023-04-29T00:33:41.052Z,97915.53
2023-04-29T00:36:29.410Z,97918.50
2023-04-29T00:39:17.136Z,97911.53
2023-04-29T00:42:05.064Z,97901.78
2023-04-29T00:44:52.994Z,97898.28
2023-04-29T00:47:42.453Z,97904.09
2023-04-29T00:50:30.798Z,97906.22
2023-04-29T00:53:18.619Z,97908.38
2023-04-29T00:56:07.512Z,97916.16
2023-04-29T00:58:55.889Z,97918.03
2023-04-29T01:01:44.718Z,97927.47
2023-04-29T01:04:33.970Z,97926.84
2023-04-29T01:07:31.165Z,97928.72
2023-04-29T01:10:28.748Z,97937.56
2023-04-29T01:13:21.779Z,97935.69
2023-04-29T01:16:18.615Z,97924.22
2023-04-29T01:19:17.914Z,97927.25
2023-04-29T01:22:07.223Z,97917.44
2023-04-29T01:24:59.040Z,97916.78
2023-04-29T01:27:53.942Z,97909.66
2023-04-29T01:30:51.402Z,97907.81
2023-04-29T01:33:55.839Z,97906.78
2023-04-29T01:37:02.460Z,97894.50
2023-04-29T01:40:06.673Z,97893.16
2023-04-29T01:43:03.971Z,97894.63
2023-04-29T01:45:53.421Z,97899.41
2023-04-29T01:48:41.663Z,97891.13
2023-04-29T01:51:29.825Z,97890.44
2023-04-29T01:54:17.787Z,97893.72
2023-04-29T01:57:07.029Z,97887.06
2023-04-29T01:59:54.900Z,97892.69
2023-04-29T02:02:42.788Z,97887.00
2023-04-29T02:05:32.505Z,97889.00
2023-04-29T02:08:20.544Z,97892.28
2023-04-29T02:11:08.502Z,97900.38
2023-04-29T02:13:57.882Z,97893.75
2023-04-29T02:16:46.517Z,97882.28
2023-04-29T02:19:34.261Z,97881.59
2023-04-29T02:22:22.300Z,97884.25
2023-04-29T02:25:19.517Z,97895.16
2023-04-29T02:28:07.318Z,97890.19
2023-04-29T02:30:56.992Z,97894.81
2023-04-29T02:33:45.003Z,97889.84
2023-04-29T02:36:33.353Z,97897.09
2023-04-29T02:39:21.111Z,97902.03
2023-04-29T02:42:09.093Z,97896.22
2023-04-29T02:44:57.000Z,97902.81
2023-04-29T02:47:46.320Z,97897.97
2023-04-29T02:50:34.184Z,97902.88
2023-04-29T02:53:24.768Z,97900.69
2023-04-29T02:56:12.733Z,97897.53
2023-04-29T02:59:00.644Z,97898.81
2023-04-29T03:01:48.662Z,97910.69
2023-04-29T03:04:39.993Z,97897.75
2023-04-29T03:07:29.953Z,97904.34
2023-04-29T03:10:18.158Z,97908.00
2023-04-29T03:13:06.193Z,97908.00
2023-04-29T03:15:54.130Z,97911.91
2023-04-29T03:18:42.059Z,97905.94
2023-04-29T03:21:31.350Z,97920.00
2023-04-29T03:24:19.223Z,97910.56
2023-04-29T03:27:07.338Z,97911.53
2023-04-29T03:29:55.532Z,97913.22
2023-04-29T03:32:43.923Z,97918.66
2023-04-29T03:35:31.942Z,97911.41
2023-04-29T03:38:21.312Z,97911.91
2023-04-29T03:41:10.293Z,97918.59
2023-04-29T03:44:00.757Z,97918.59
2023-04-29T03:46:48.865Z,97919.69
2023-04-29T03:49:37.580Z,97912.91
2023-04-29T03:52:25.753Z,97917.50
2023-04-29T03:55:14.842Z,97922.97
2023-04-29T03:58:02.485Z,97927.28
2023-04-29T04:00:50.591Z,97923.13
2023-04-29T04:03:38.775Z,97928.44
2023-04-29T04:06:27.067Z,97932.72
2023-04-29T04:09:14.587Z,97946.28
2023-04-29T04:12:03.965Z,97946.28
2023-04-29T04:14:51.808Z,97953.53
2023-04-29T04:17:40.358Z,97942.94
2023-04-29T04:20:28.175Z,97946.41
2023-04-29T04:23:16.261Z,97956.00
2023-04-29T04:26:04.069Z,97961.16
2023-04-29T04:28:53.107Z,97968.44
2023-04-29T04:31:41.287Z,97969.81
2023-04-29T04:34:29.187Z,97982.66
2023-04-29T04:37:17.630Z,97993.34
2023-04-29T04:40:06.597Z,97988.41
2023-04-29T04:42:55.221Z,97987.75
2023-04-29T04:45:44.409Z,97983.25
2023-04-29T04:48:32.241Z,97983.81
2023-04-29T04:51:20.858Z,97983.50
2023-04-29T04:54:08.689Z,97987.31
2023-04-29T04:56:56.597Z,97994.84
2023-04-29T04:59:44.560Z,97998.56
2023-04-29T05:02:34.064Z,98006.97
2023-04-29T05:05:21.890Z,98007.50
2023-04-29T05:08:09.636Z,98020.50
2023-04-29T05:10:58.401Z,98024.75
2023-04-29T05:13:46.068Z,98025.88
2023-04-29T05:16:34.244Z,98020.81
2023-04-29T05:19:23.578Z,98029.50
2023-04-29T05:22:11.579Z,98018.94
2023-04-29T05:25:03.001Z,98029.47
2023-04-29T05:27:51.471Z,98033.81
2023-04-29T05:30:39.610Z,98039.25
2023-04-29T05:33:27.268Z,98041.25
2023-04-29T05:36:16.593Z,98045.75
2023-04-29T05:39:04.643Z,98053.66
2023-04-29T05:41:52.732Z,98052.75
2023-04-29T05:44:40.715Z,98048.22
2023-04-29T05:47:28.987Z,98061.25
2023-04-29T05:50:17.177Z,98047.91
2023-04-29T05:53:06.250Z,98050.34
2023-04-29T05:55:54.088Z,98042.59
2023-04-29T05:58:42.117Z,98034.53
2023-04-29T06:01:30.189Z,98033.72
2023-04-29T06:04:18.442Z,98029.25
2023-04-29T06:07:06.138Z,98021.31
2023-04-29T06:09:56.950Z,98031.97
2023-04-29T06:12:44.989Z,98028.66
2023-04-29T06:15:33.345Z,98017.88
2023-04-29T06:18:21.365Z,98020.56
2023-04-29T06:21:09.432Z,98018.75
2023-04-29T06:23:57.443Z,98031.88
2023-04-29T06:26:46.966Z,98037.22
2023-04-29T06:29:34.809Z,98049.69
2023-04-29T06:32:22.913Z,98049.69
2023-04-29T06:35:11.286Z,98060.31
2023-04-29T06:37:59.599Z,98056.50
2023-04-29T06:40:47.646Z,98054.00
2023-04-29T06:43:37.176Z,98051.31
2023-04-29T06:46:24.932Z,98059.34
2023-04-29T06:49:13.251Z,98051.34
2023-04-29T06:52:02.244Z,98051.34
2023-04-29T06:54:50.327Z,98050.78
2023-04-29T06:57:38.451Z,98060.09
2023-04-29T07:00:27.428Z,98061.56
2023-04-29T07:03:15.587Z,98061.53
2023-04-29T07:06:06.134Z,98062.31
2023-04-29T07:08:55.498Z,98058.63
2023-04-29T07:11:44.694Z,98071.53
2023-04-29T07:14:33.043Z,98074.69
2023-04-29T07:17:22.118Z,98075.31
2023-04-29T07:20:11.178Z,98080.41
2023-04-29T07:22:58.934Z,98076.06
2023-04-29T07:25:47.053Z,98081.84
2023-04-29T07:28:34.937Z,98082.25
2023-04-29T07:31:22.941Z,98083.22
2023-04-29T07:34:12.446Z,98082.91
2023-04-29T07:37:00.680Z,98077.50
2023-04-29T07:39:48.687Z,98078.47
2023-04-29T07:42:36.466Z,98089.53
2023-04-29T07:45:24.344Z,98089.56
2023-04-29T07:48:12.318Z,98087.28
2023-04-29T07:51:01.744Z,98083.72
2023-04-29T07:53:49.663Z,98087.97
2023-04-29T07:56:37.678Z,98093.50
2023-04-29T07:59:25.382Z,98086.72
2023-04-29T08:02:13.861Z,98092.31
2023-04-29T08:05:02.947Z,98100.97
2023-04-29T08:07:53.333Z,98099.69
2023-04-29T08:10:43.915Z,98103.50
2023-04-29T08:13:32.039Z,98111.25
2023-04-29T08:16:21.628Z,98106.06
2023-04-29T08:19:09.535Z,98111.94
2023-04-29T08:21:57.420Z,98108.22
2023-04-29T08:24:46.812Z,98107.44
2023-04-29T08:27:34.927Z,98107.50
2023-04-29T08:30:22.832Z,98114.13
2023-04-29T08:33:13.119Z,98110.19
2023-04-29T08:36:03.586Z,98119.25
2023-04-29T08:38:52.701Z,98122.19
2023-04-29T08:41:44.194Z,98129.47
2023-04-29T08:44:34.101Z,98121.59
2023-04-29T08:47:23.390Z,98128.22
2023-04-29T08:50:20.934Z,98134.06
2023-04-29T08:53:09.177Z,98139.16
2023-04-29T08:55:59.234Z,98136.47
2023-04-29T08:58:51.930Z,98143.69
2023-04-29T09:01:41.934Z,98141.78
2023-04-29T09:04:39.204Z,98144.00
2023-04-29T09:07:28.441Z,98150.00
2023-04-29T09:10:17.015Z,98154.97
2023-04-29T09:13:05.346Z,98161.22
2023-04-29T09:15:55.277Z,98160.47
2023-04-29T09:18:47.591Z,98158.09
2023-04-29T09:21:56.884Z,98166.56
2023-04-29T09:24:45.594Z,98155.94
2023-04-29T09:27:34.623Z,98161.41
2023-04-29T09:30:48.199Z,98155.38
2023-04-29T09:36:48.207Z,98148.34
2023-04-29T09:39:54.854Z,98157.09
2023-04-29T09:43:06.937Z,98149.09
2023-04-29T09:46:38.408Z,98138.81
2023-04-29T09:49:30.838Z,98148.16
2023-04-29T09:52:38.641Z,98150.06
2023-04-29T09:55:36.225Z,98141.00
2023-04-29T09:58:46.473Z,98146.81
2023-04-29T10:03:01.024Z,98140.00
2023-04-29T10:05:23.205Z,98143.94
2023-04-29T10:08:13.014Z,98145.41
2023-04-29T10:11:28.670Z,98141.06
2023-04-29T10:14:58.065Z,98140.22
2023-04-29T10:18:16.773Z,98145.19
2023-04-29T10:21:10.588Z,98142.06
2023-04-29T10:24:03.537Z,98140.22
2023-04-29T10:26:54.037Z,98142.69
2023-04-29T10:29:50.900Z,98138.16
2023-04-29T10:32:50.599Z,98138.13
2023-04-29T10:35:40.518Z,98148.69
2023-04-29T10:38:32.332Z,98146.59
2023-04-29T10:41:25.509Z,98145.56
2023-04-29T10:44:13.399Z,98139.13
2023-04-29T10:47:20.459Z,98139.34
2023-04-29T10:50:09.078Z,98136.81
2023-04-29T10:52:57.871Z,98135.81
2023-04-29T10:55:49.812Z,98144.91
2023-04-29T10:58:44.533Z,98145.94
2023-04-29T11:01:59.568Z,98138.50
2023-04-29T11:05:08.495Z,98148.25
2023-04-29T11:08:12.749Z,98143.72
2023-04-29T11:11:03.976Z,98148.47
2023-04-29T11:13:53.746Z,98153.44
2023-04-29T11:16:49.880Z,98152.22
2023-04-29T11:19:42.188Z,98150.75
2023-04-29T11:22:33.680Z,98149.47
2023-04-29T11:25:23.656Z,98150.50
2023-04-29T11:28:12.905Z,98152.34
2023-04-29T11:31:03.800Z,98154.66
2023-04-29T11:33:51.727Z,98149.69
2023-04-29T11:36:39.420Z,98151.72
2023-04-29T11:39:27.868Z,98159.59
2023-04-29T11:42:20.424Z,98158.78
2023-04-29T11:45:09.363Z,98160.03
2023-04-29T11:47:58.880Z,98168.72
2023-04-29T11:50:47.796Z,98173.06
2023-04-29T11:53:38.865Z,98181.59
2023-04-29T11:56:27.152Z,98182.81
2023-04-29T11:59:15.066Z,98188.66
2023-04-29T12:02:03.355Z,98185.78
2023-04-29T12:04:53.149Z,98189.94
2023-04-29T12:07:41.499Z,98189.69
2023-04-29T12:10:29.869Z,98191.16
2023-04-29T12:13:19.611Z,98189.06
2023-04-29T12:16:11.427Z,98192.84
2023-04-29T12:19:01.074Z,98183.28
2023-04-29T12:21:58.338Z,98193.63
2023-04-29T12:24:46.261Z,98194.03
2023-04-29T12:27:34.966Z,98189.47
2023-04-29T12:30:23.124Z,98195.66
2023-04-29T12:33:12.728Z,98196.88
2023-04-29T12:36:02.083Z,98194.19
2023-04-29T12:38:54.573Z,98195.63
2023-04-29T12:41:44.211Z,98196.88
2023-04-29T12:44:37.980Z,98205.78
2023-04-29T12:47:33.291Z,98206.41
2023-04-29T12:50:21.880Z,98200.81
2023-04-29T12:53:11.796Z,98203.31
2023-04-29T12:56:01.639Z,98200.81
2023-04-29T12:58:49.949Z,98202.25
2023-04-29T13:01:38.042Z,98200.63
2023-04-29T13:04:26.132Z,98206.00
2023-04-29T13:07:14.195Z,98208.47
2023-04-29T13:10:02.506Z,98205.63
2023-04-29T13:12:52.128Z,98202.72
2023-04-29T13:15:40.180Z,98194.25
2023-04-29T13:18:28.032Z,98198.78
2023-04-29T13:21:16.491Z,98200.66
2023-04-29T13:24:04.264Z,98203.97
2023-04-29T13:26:53.042Z,98193.22
2023-04-29T13:29:42.558Z,98195.69
2023-04-29T13:32:43.231Z,98198.16
2023-04-29T13:35:35.985Z,98201.88
2023-04-29T13:38:23.985Z,98205.63
2023-04-29T13:41:16.864Z,98207.47
2023-04-29T13:44:07.659Z,98206.63
2023-04-29T13:47:08.293Z,98210.56
2023-04-29T14:01:55.250Z,98220.06
2023-04-29T14:04:29.847Z,98222.09
2023-04-29T14:07:17.933Z,98221.88
2023-04-29T14:10:06.672Z,98226.41
2023-04-29T14:12:54.604Z,98220.38
2023-04-29T14:15:42.711Z,98222.44
2023-04-29T14:18:30.735Z,98222.88
2023-04-29T14:21:22.458Z,98227.81
2023-04-29T14:24:10.517Z,98223.28
2023-04-29T14:26:59.134Z,98227.72
2023-04-29T14:29:47.441Z,98231.03
2023-04-29T14:32:35.702Z,98231.00
2023-04-29T14:35:24.148Z,98244.59
2023-04-29T14:38:14.390Z,98242.88
2023-04-29T14:41:02.554Z,98243.91
2023-04-29T14:43:50.552Z,98250.69
2023-04-29T14:46:38.682Z,98252.50
2023-04-29T14:49:26.706Z,98255.97
2023-04-29T14:52:14.569Z,98256.56
2023-04-29T14:55:04.502Z,98259.63
2023-04-29T14:57:52.215Z,98259.44
2023-04-29T15:00:40.299Z,98259.44
2023-04-29T15:03:28.273Z,98259.63
2023-04-29T15:06:16.469Z,98271.22
2023-04-29T15:09:04.947Z,98270.59
2023-04-29T15:11:54.385Z,98267.28
2023-04-29T15:14:42.456Z,98277.38
2023-04-29T15:17:30.413Z,98266.81
2023-04-29T15:20:18.377Z,98277.94
2023-04-29T15:23:08.436Z,98282.63
2023-04-29T15:25:57.529Z,98288.78
2023-04-29T15:28:47.216Z,98287.44
2023-04-29T15:31:35.195Z,98284.88
2023-04-29T15:34:23.258Z,98294.06
2023-04-29T15:37:11.467Z,98307.44
2023-04-29T15:40:00.641Z,98293.50
2023-04-29T15:42:48.738Z,98294.09
2023-04-29T15:45:42.194Z,98298.53
2023-04-29T15:48:32.145Z,98301.78
2023-04-29T15:51:20.230Z,98302.56
2023-04-29T15:54:08.353Z,98305.34
2023-04-29T15:56:57.566Z,98313.09
2023-04-29T15:59:45.640Z,98309.53
2023-04-29T16:02:35.099Z,98317.50
2023-04-29T16:05:22.969Z,98319.06
2023-04-29T16:08:11.120Z,98325.81
2023-04-29T16:10:59.552Z,98333.59
2023-04-29T16:13:47.954Z,98329.59
2023-04-29T16:16:36.121Z,98341.53
2023-04-29T16:19:25.324Z,98341.72
2023-04-29T16:22:13.405Z,98345.22
2023-04-29T16:25:01.715Z,98344.38
2023-04-29T16:27:49.747Z,98351.59
2023-04-29T16:30:38.020Z,98353.44
2023-04-29T16:33:26.099Z,98348.91
2023-04-29T16:36:15.794Z,98352.97
2023-04-29T16:39:04.594Z,98359.84
2023-04-29T16:41:52.795Z,98357.16
2023-04-29T16:44:40.825Z,98359.63
2023-04-29T16:47:28.937Z,98354.25
2023-04-29T16:50:19.673Z,98362.50
2023-04-29T16:53:09.021Z,98367.88
2023-04-29T16:55:57.428Z,98377.75
2023-04-29T16:58:45.761Z,98370.91
2023-04-29T17:01:33.474Z,98373.94
2023-04-29T17:04:21.445Z,98377.97
2023-04-29T17:07:10.074Z,98380.19
2023-04-29T17:09:59.237Z,98385.06
2023-04-29T17:12:47.261Z,98380.28
2023-04-29T17:15:35.556Z,98391.72
2023-04-29T17:18:23.717Z,98393.28
2023-04-29T17:21:11.693Z,98394.84
2023-04-29T17:24:00.021Z,98400.72
2023-04-29T17:26:49.883Z,98398.78
2023-04-29T17:29:38.471Z,98393.78
2023-04-29T17:32:29.325Z,98399.56
2023-04-29T17:35:17.361Z,98400.94
2023-04-29T17:38:05.670Z,98407.03
2023-04-29T17:40:53.507Z,98404.03
2023-04-29T17:43:43.044Z,98410.09
2023-04-29T17:46:31.433Z,98406.31
2023-04-29T17:49:19.558Z,98409.50
2023-04-29T17:52:09.996Z,98416.22
2023-04-29T17:54:57.972Z,98419.25
2023-04-29T17:57:46.340Z,98415.06
2023-04-29T18:00:36.192Z,98418.47
2023-04-29T18:03:27.109Z,98420.16
2023-04-29T18:06:15.911Z,98429.53
2023-04-29T18:09:04.084Z,98425.72
2023-04-29T18:11:52.391Z,98431.41
2023-04-29T18:14:40.465Z,98440.78
2023-04-29T18:17:29.977Z,98444.78
2023-04-29T18:20:18.033Z,98443.50
2023-04-29T18:23:06.453Z,98450.19
2023-04-29T18:25:54.830Z,98447.19
2023-04-29T18:28:43.303Z,98449.56
2023-04-29T18:31:31.650Z,98456.91
2023-04-29T18:34:20.858Z,98457.44
2023-04-29T18:37:08.811Z,98463.63
2023-04-29T18:39:56.924Z,98465.16
2023-04-29T18:42:45.237Z,98465.19
2023-04-29T18:45:33.320Z,98471.69
2023-04-29T18:48:21.453Z,98474.84
2023-04-29T18:51:11.100Z,98477.88
2023-04-29T18:53:59.130Z,98482.06
2023-04-29T18:56:48.899Z,98487.09
2023-04-29T18:59:38.014Z,98488.06
2023-04-29T19:02:26.389Z,98496.41
2023-04-29T19:05:14.448Z,98498.09
2023-04-29T19:08:03.896Z,98496.59
2023-04-29T19:10:53.376Z,98502.59
2023-04-29T19:13:41.185Z,98500.28
2023-04-29T19:16:29.410Z,98502.44
2023-04-29T19:19:17.416Z,98507.28
2023-04-29T19:22:05.519Z,98504.09
2023-04-29T19:24:54.751Z,98509.78
2023-04-29T19:27:45.071Z,98507.56
2023-04-29T19:30:33.541Z,98507.41
2023-04-29T19:33:21.402Z,98514.72
2023-04-29T19:36:11.357Z,98514.91
2023-04-29T19:38:59.533Z,98514.06
2023-04-29T19:41:48.605Z,98526.53
2023-04-29T19:44:36.413Z,98527.72
2023-04-29T19:47:24.885Z,98525.72
2023-04-29T19:50:12.944Z,98530.88
2023-04-29T19:53:01.164Z,98528.69
2023-04-29T19:55:51.594Z,98528.34
2023-04-29T19:58:41.101Z,98535.16
2023-04-29T20:01:29.172Z,98541.81
2023-04-29T20:04:16.948Z,98540.13
2023-04-29T20:07:04.809Z,98532.66
2023-04-29T20:09:52.838Z,98539.09
2023-04-29T20:12:40.715Z,98536.91
2023-04-29T20:15:30.776Z,98542.56
2023-04-29T20:18:18.983Z,98539.25
2023-04-29T20:21:06.928Z,98549.22
2023-04-29T20:23:54.831Z,98545.22
2023-04-29T20:26:42.702Z,98556.19
2023-04-29T20:29:30.589Z,98543.19
2023-04-29T20:32:19.962Z,98541.69
2023-04-29T20:35:08.246Z,98546.34
2023-04-29T20:37:56.592Z,98547.34
2023-04-29T20:40:44.556Z,98549.31
2023-04-29T20:43:33.168Z,98553.13
2023-04-29T20:46:21.166Z,98559.78
2023-04-29T20:49:10.704Z,98564.59
2023-04-29T20:51:58.821Z,98565.59
2023-04-29T20:54:47.101Z,98564.06
2023-04-29T20:57:35.165Z,98566.06
2023-04-29T21:00:23.062Z,98568.03
2023-04-29T21:03:11.517Z,98570.00
2023-04-29T21:06:01.215Z,98572.00
2023-04-29T21:08:49.426Z,98566.00
2023-04-29T21:11:37.193Z,98570.66
2023-04-29T21:14:25.422Z,98571.78
2023-04-29T21:17:13.869Z,98572.94
2023-04-29T21:20:01.744Z,98580.25
2023-04-29T21:22:51.342Z,98584.75
2023-04-29T21:25:39.513Z,98582.25
2023-04-29T21:28:27.819Z,98583.38
2023-04-29T21:31:16.563Z,98584.22
2023-04-29T21:34:04.546Z,98587.03
2023-04-29T21:36:52.251Z,98588.19
2023-04-29T21:39:41.849Z,98587.50
2023-04-29T21:42:30.012Z,98588.78
2023-04-29T21:45:18.523Z,98586.28
2023-04-29T21:48:15.638Z,98594.41
2023-04-29T21:51:05.299Z,98587.72
2023-04-29T21:53:53.713Z,98594.03
2023-04-29T21:56:43.196Z,98596.88
2023-04-29T21:59:34.311Z,98597.03
2023-04-29T22:02:25.123Z,98601.34
2023-04-29T22:05:13.127Z,98584.38
2023-04-29T22:08:03.115Z,98594.22
2023-04-29T22:10:51.252Z,98597.34
2023-04-29T22:13:40.704Z,98596.63
2023-04-29T22:16:28.432Z,98597.66
2023-04-29T22:19:16.686Z,98608.59
2023-04-29T22:22:04.773Z,98599.59
2023-04-29T22:24:52.608Z,98605.09
2023-04-29T22:27:40.550Z,98605.25
2023-04-29T22:30:29.836Z,98601.88
2023-04-29T22:33:17.742Z,98601.88
2023-04-29T22:36:06.107Z,98598.25
2023-04-29T22:38:54.280Z,98597.25
2023-04-29T22:41:42.228Z,98600.22
2023-04-29T22:44:30.248Z,98603.88
2023-04-29T22:47:19.701Z,98610.34
2023-04-29T22:50:08.786Z,98606.16
2023-04-29T22:52:56.584Z,98614.75
2023-04-29T22:55:51.576Z,98612.38
2023-04-29T22:58:39.531Z,98614.38
2023-04-29T23:01:27.246Z,98617.19
2023-04-29T23:04:16.644Z,98616.34
2023-04-29T23:07:04.581Z,98620.00
2023-04-29T23:09:53.270Z,98616.34
2023-04-29T23:12:41.140Z,98618.00
2023-04-29T23:15:29.690Z,98615.53
2023-04-29T23:18:17.423Z,98622.97
2023-04-29T23:21:07.184Z,98620.59
2023-04-29T23:23:55.707Z,98621.75
2023-04-29T23:26:43.669Z,98622.88
2023-04-29T23:29:34.246Z,98625.53
2023-04-29T23:32:22.223Z,98625.81
2023-04-29T23:35:11.350Z,98623.16
2023-04-29T23:38:00.667Z,98630.47
2023-04-29T23:40:48.890Z,98633.44
2023-04-29T23:43:36.925Z,98630.22
2023-04-29T23:46:25.506Z,98630.53
2023-04-29T23:49:13.346Z,98630.09
2023-04-29T23:52:01.397Z,98627.72
2023-04-29T23:54:50.784Z,98627.34
2023-04-29T23:57:38.782Z,98627.50
